sensor_id;sensor_type;location;lat;lon;timestamp;pressure;altitude;pressure_sealevel;temperature;humidity
8697;BME280;4385;48.848;8.924;2023-07-30T00:02:15;96978.22;;;22.29;100.00
8697;BME280;4385;48.848;8.924;2023-07-30T00:04:41;96962.81;;;22.29;100.00
8697;BME280;4385;48.848;8.924;2023-07-30T00:07:06;96958.53;;;22.30;100.00
8697;BME280;4385;48.848;8.924;2023-07-30T00:09:32;96958.59;;;22.28;100.00
8697;BME280;4385;48.848;8.924;2023-07-30T00:11:57;96958.59;;;22.28;100.00
8697;BME280;4385;48.848;8.924;2023-07-30T00:14:22;96971.44;;;22.28;100.00
8697;BME280;4385;48.848;8.924;2023-07-30T00:16:47;96979.13;;;22.28;100.00
8697;BME280;4385;48.848;8.924;2023-07-30T00:19:13;96981.69;;;22.28;100.00
8697;BME280;4385;48.848;8.924;2023-07-30T00:21:38;96985.97;;;22.28;100.00
8697;BME280;4385;48.848;8.924;2023-07-30T00:24:03;96990.31;;;22.27;100.00
8697;BME280;4385;48.848;8.924;2023-07-30T00:26:29;96980.03;;;22.27;100.00
8697;BME280;4385;48.848;8.924;2023-07-30T00:28:55;96982.59;;;22.27;100.00
8697;BME280;4385;48.848;8.924;2023-07-30T00:31:20;96976.63;;;22.27;100.00
8697;BME280;4385;48.848;8.924;2023-07-30T00:33:45;96986.06;;;22.26;100.00
8697;BME280;4385;48.848;8.924;2023-07-30T00:36:11;96987.81;;;22.26;100.00
8697;BME280;4385;48.848;8.924;2023-07-30T00:38:36;96997.22;;;22.25;100.00
8697;BME280;4385;48.848;8.924;2023-07-30T00:41:01;96999.81;;;22.25;100.00
8697;BME280;4385;48.848;8.924;2023-07-30T00:43:26;97002.38;;;22.25;100.00
8697;BME280;4385;48.848;8.924;2023-07-30T00:45:52;97010.97;;;22.24;100.00
8697;BME280;4385;48.848;8.924;2023-07-30T00:48:17;97002.44;;;22.24;100.00
8697;BME280;4385;48.848;8.924;2023-07-30T00:50:43;97000.72;;;22.24;100.00
8697;BME280;4385;48.848;8.924;2023-07-30T00:53:09;97000.72;;;22.24;100.00
8697;BME280;4385;48.848;8.924;2023-07-30T00:55:36;97002.50;;;22.22;100.00
8697;BME280;4385;48.848;8.924;2023-07-30T00:58:02;96999.94;;;22.22;100.00
8697;BME280;4385;48.848;8.924;2023-07-30T01:00:28;97009.38;;;22.22;100.00
8697;BME280;4385;48.848;8.924;2023-07-30T01:02:55;97006.78;;;22.22;100.00
8697;BME280;4385;48.848;8.924;2023-07-30T01:05:20;97007.63;;;22.22;100.00
8697;BME280;4385;48.848;8.924;2023-07-30T01:07:46;97007.63;;;22.22;100.00
8697;BME280;4385;48.848;8.924;2023-07-30T01:10:11;97017.06;;;22.22;100.00
8697;BME280;4385;48.848;8.924;2023-07-30T01:12:37;97023.03;;;22.22;100.00
8697;BME280;4385;48.848;8.924;2023-07-30T01:15:04;97011.13;;;22.21;100.00
8697;BME280;4385;48.848;8.924;2023-07-30T01:17:29;97019.63;;;22.22;100.00
8697;BME280;4385;48.848;8.924;2023-07-30T01:19:55;97015.41;;;22.21;100.00
8697;BME280;4385;48.848;8.924;2023-07-30T01:22:21;97011.13;;;22.21;100.00
8697;BME280;4385;48.848;8.924;2023-07-30T01:24:48;97017.97;;;22.21;100.00
8697;BME280;4385;48.848;8.924;2023-07-30T01:27:22;97013.69;;;22.21;100.00
8697;BME280;4385;48.848;8.924;2023-07-30T01:29:51;97011.13;;;22.21;100.00
8697;BME280;4385;48.848;8.924;2023-07-30T01:32:20;97019.69;;;22.20;100.00
8697;BME280;4385;48.848;8.924;2023-07-30T01:34:51;97019.69;;;22.20;100.00
8697;BME280;4385;48.848;8.924;2023-07-30T01:37:17;97018.03;;;22.19;100.00
8697;BME280;4385;48.848;8.924;2023-07-30T01:39:44;97018.88;;;22.20;100.00
8697;BME280;4385;48.848;8.924;2023-07-30T01:42:13;97023.19;;;22.19;100.00
8697;BME280;4385;48.848;8.924;2023-07-30T01:44:38;97023.19;;;22.19;100.00
8697;BME280;4385;48.848;8.924;2023-07-30T01:47:03;97031.78;;;22.18;100.00
8697;BME280;4385;48.848;8.924;2023-07-30T01:49:29;97027.47;;;22.18;100.00
8697;BME280;4385;48.848;8.924;2023-07-30T01:51:54;97026.66;;;22.18;100.00
8697;BME280;4385;48.848;8.924;2023-07-30T01:54:19;97029.22;;;22.18;100.00
8697;BME280;4385;48.848;8.924;2023-07-30T01:56:44;97023.25;;;22.17;100.00
8697;BME280;4385;48.848;8.924;2023-07-30T01:59:10;97022.41;;;22.17;100.00
8697;BME280;4385;48.848;8.924;2023-07-30T02:01:35;97020.69;;;22.17;100.00
8697;BME280;4385;48.848;8.924;2023-07-30T02:04:00;97014.69;;;22.17;100.00
8697;BME280;4385;48.848;8.924;2023-07-30T02:06:25;97014.69;;;22.17;100.00
8697;BME280;4385;48.848;8.924;2023-07-30T02:08:51;97015.53;;;22.17;100.00
8697;BME280;4385;48.848;8.924;2023-07-30T02:11:16;97003.63;;;22.16;100.00
8697;BME280;4385;48.848;8.924;2023-07-30T02:13:41;97000.22;;;22.16;100.00
8697;BME280;4385;48.848;8.924;2023-07-30T02:16:07;97011.31;;;22.16;100.00
8697;BME280;4385;48.848;8.924;2023-07-30T02:18:32;97010.47;;;22.16;100.00
8697;BME280;4385;48.848;8.924;2023-07-30T02:20:58;97013.13;;;22.14;100.00
8697;BME280;4385;48.848;8.924;2023-07-30T02:23:23;97021.66;;;22.15;100.00
8697;BME280;4385;48.848;8.924;2023-07-30T02:25:48;97021.66;;;22.15;100.00
8697;BME280;4385;48.848;8.924;2023-07-30T02:28:14;97019.97;;;22.14;100.00
8697;BME280;4385;48.848;8.924;2023-07-30T02:30:39;97019.16;;;22.13;100.00
8697;BME280;4385;48.848;8.924;2023-07-30T02:33:04;97014.84;;;22.14;100.00
8697;BME280;4385;48.848;8.924;2023-07-30T02:35:29;97014.03;;;22.13;100.00
8697;BME280;4385;48.848;8.924;2023-07-30T02:37:55;97024.28;;;22.13;100.00
8697;BME280;4385;48.848;8.924;2023-07-30T02:40:20;97025.09;;;22.14;100.00
8697;BME280;4385;48.848;8.924;2023-07-30T02:42:45;97031.16;;;22.13;100.00
8697;BME280;4385;48.848;8.924;2023-07-30T02:45:11;97028.59;;;22.13;100.00
8697;BME280;4385;48.848;8.924;2023-07-30T02:47:36;97035.44;;;22.12;100.00
8697;BME280;4385;48.848;8.924;2023-07-30T02:50:03;97035.44;;;22.12;100.00
8697;BME280;4385;48.848;8.924;2023-07-30T02:52:28;97037.19;;;22.12;100.00
8697;BME280;4385;48.848;8.924;2023-07-30T02:54:53;97036.34;;;22.11;100.00
8697;BME280;4385;48.848;8.924;2023-07-30T02:57:19;97030.38;;;22.11;100.00
8697;BME280;4385;48.848;8.924;2023-07-30T02:59:44;97047.44;;;22.12;100.00
8697;BME280;4385;48.848;8.924;2023-07-30T03:02:09;97035.44;;;22.12;100.00
8697;BME280;4385;48.848;8.924;2023-07-30T03:04:34;97032.06;;;22.12;100.00
8697;BME280;4385;48.848;8.924;2023-07-30T03:07:01;97038.00;;;22.12;100.00
8697;BME280;4385;48.848;8.924;2023-07-30T03:09:27;97032.94;;;22.11;100.00
8697;BME280;4385;48.848;8.924;2023-07-30T03:11:52;97029.50;;;22.12;100.00
8697;BME280;4385;48.848;8.924;2023-07-30T03:14:18;97032.94;;;22.11;100.00
8697;BME280;4385;48.848;8.924;2023-07-30T03:16:48;97030.38;;;22.11;100.00
8697;BME280;4385;48.848;8.924;2023-07-30T03:19:14;97036.34;;;22.11;100.00
8697;BME280;4385;48.848;8.924;2023-07-30T03:21:40;97026.94;;;22.12;100.00
8697;BME280;4385;48.848;8.924;2023-07-30T03:24:05;97035.50;;;22.11;100.00
8697;BME280;4385;48.848;8.924;2023-07-30T03:26:30;97033.78;;;22.11;100.00
8697;BME280;4385;48.848;8.924;2023-07-30T03:28:56;97034.69;;;22.10;100.00
8697;BME280;4385;48.848;8.924;2023-07-30T03:31:21;97038.97;;;22.10;100.00
8697;BME280;4385;48.848;8.924;2023-07-30T03:33:46;97044.13;;;22.10;100.00
8697;BME280;4385;48.848;8.924;2023-07-30T03:36:12;97048.41;;;22.09;100.00
8697;BME280;4385;48.848;8.924;2023-07-30T03:38:41;97053.53;;;22.09;100.00
8697;BME280;4385;48.848;8.924;2023-07-30T03:41:07;97052.72;;;22.09;100.00
8697;BME280;4385;48.848;8.924;2023-07-30T03:43:33;97055.28;;;22.09;100.00
8697;BME280;4385;48.848;8.924;2023-07-30T03:45:59;97062.97;;;22.09;100.00
8697;BME280;4385;48.848;8.924;2023-07-30T03:48:24;97062.13;;;22.08;100.00
8697;BME280;4385;48.848;8.924;2023-07-30T03:50:49;97066.44;;;22.08;100.00
8697;BME280;4385;48.848;8.924;2023-07-30T03:53:15;97069.00;;;22.08;100.00
8697;BME280;4385;48.848;8.924;2023-07-30T03:55:40;97064.78;;;22.07;100.00
8697;BME280;4385;48.848;8.924;2023-07-30T03:58:06;97065.63;;;22.07;100.00
8697;BME280;4385;48.848;8.924;2023-07-30T04:00:31;97053.59;;;22.08;100.00
8697;BME280;4385;48.848;8.924;2023-07-30T04:02:56;97057.06;;;22.07;100.00
8697;BME280;4385;48.848;8.924;2023-07-30T04:05:22;97043.41;;;22.06;100.00
8697;BME280;4385;48.848;8.924;2023-07-30T04:07:47;97052.78;;;22.07;100.00
8697;BME280;4385;48.848;8.924;2023-07-30T04:10:12;97054.50;;;22.07;100.00
8697;BME280;4385;48.848;8.924;2023-07-30T04:12:37;97044.25;;;22.07;100.00
8697;BME280;4385;48.848;8.924;2023-07-30T04:15:03;97053.66;;;22.06;100.00
8697;BME280;4385;48.848;8.924;2023-07-30T04:17:28;97054.56;;;22.05;100.00
8697;BME280;4385;48.848;8.924;2023-07-30T04:19:54;97058.88;;;22.04;100.00
8697;BME280;4385;48.848;8.924;2023-07-30T04:22:19;97070.03;;;22.03;100.00
8697;BME280;4385;48.848;8.924;2023-07-30T04:24:44;97079.47;;;22.03;100.00
8697;BME280;4385;48.848;8.924;2023-07-30T04:27:09;97085.44;;;22.03;100.00
8697;BME280;4385;48.848;8.924;2023-07-30T04:29:35;97080.31;;;22.03;100.00
8697;BME280;4385;48.848;8.924;2023-07-30T04:32:00;97081.22;;;22.02;100.00
8697;BME280;4385;48.848;8.924;2023-07-30T04:34:25;97084.59;;;22.03;100.00
8697;BME280;4385;48.848;8.924;2023-07-30T04:36:50;97088.91;;;22.02;100.00
8697;BME280;4385;48.848;8.924;2023-07-30T04:39:16;97096.59;;;22.02;100.00
8697;BME280;4385;48.848;8.924;2023-07-30T04:41:41;97095.75;;;22.02;100.00
8697;BME280;4385;48.848;8.924;2023-07-30T04:44:06;97094.78;;;22.04;100.00
8697;BME280;4385;48.848;8.924;2023-07-30T04:46:32;97093.97;;;22.04;100.00
8697;BME280;4385;48.848;8.924;2023-07-30T04:48:58;97097.34;;;22.04;100.00
8697;BME280;4385;48.848;8.924;2023-07-30T04:51:23;97096.47;;;22.05;100.00
8697;BME280;4385;48.848;8.924;2023-07-30T04:53:49;97100.81;;;22.03;100.00
8697;BME280;4385;48.848;8.924;2023-07-30T04:56:14;97103.31;;;22.05;100.00
8697;BME280;4385;48.848;8.924;2023-07-30T04:58:39;97098.25;;;22.03;100.00
8697;BME280;4385;48.848;8.924;2023-07-30T05:01:05;97111.94;;;22.04;100.00
8697;BME280;4385;48.848;8.924;2023-07-30T05:03:30;97105.97;;;22.03;100.00
8697;BME280;4385;48.848;8.924;2023-07-30T05:05:55;97113.59;;;22.05;100.00
8697;BME280;4385;48.848;8.924;2023-07-30T05:08:20;97114.50;;;22.04;100.00
8697;BME280;4385;48.848;8.924;2023-07-30T05:10:46;97118.78;;;22.03;100.00
8697;BME280;4385;48.848;8.924;2023-07-30T05:13:11;97118.78;;;22.03;100.00
8697;BME280;4385;48.848;8.924;2023-07-30T05:15:38;97120.50;;;22.03;100.00
8697;BME280;4385;48.848;8.924;2023-07-30T05:18:03;97119.69;;;22.02;100.00
8697;BME280;4385;48.848;8.924;2023-07-30T05:20:28;97111.16;;;22.02;100.00
8697;BME280;4385;48.848;8.924;2023-07-30T05:22:54;97111.16;;;22.02;100.00
8697;BME280;4385;48.848;8.924;2023-07-30T05:25:19;97104.31;;;22.02;100.00
8697;BME280;4385;48.848;8.924;2023-07-30T05:27:44;97110.31;;;22.01;100.00
8697;BME280;4385;48.848;8.924;2023-07-30T05:30:10;97106.09;;;22.00;100.00
8697;BME280;4385;48.848;8.924;2023-07-30T05:32:35;97108.59;;;22.02;100.00
8697;BME280;4385;48.848;8.924;2023-07-30T05:35:00;97095.75;;;22.02;100.00
8697;BME280;4385;48.848;8.924;2023-07-30T05:37:27;97109.44;;;22.02;100.00
8697;BME280;4385;48.848;8.924;2023-07-30T05:39:52;97109.44;;;22.02;100.00
8697;BME280;4385;48.848;8.924;2023-07-30T05:42:17;97113.72;;;22.02;100.00
8697;BME280;4385;48.848;8.924;2023-07-30T05:44:42;97110.25;;;22.03;100.00
8697;BME280;4385;48.848;8.924;2023-07-30T05:47:08;97115.38;;;22.03;100.00
8697;BME280;4385;48.848;8.924;2023-07-30T05:49:33;97109.44;;;22.02;100.00
8697;BME280;4385;48.848;8.924;2023-07-30T05:51:58;97109.44;;;22.02;100.00
8697;BME280;4385;48.848;8.924;2023-07-30T05:54:23;97101.72;;;22.02;100.00
8697;BME280;4385;48.848;8.924;2023-07-30T05:56:49;97101.72;;;22.02;100.00
8697;BME280;4385;48.848;8.924;2023-07-30T05:59:14;97102.59;;;22.01;100.00
8697;BME280;4385;48.848;8.924;2023-07-30T06:01:39;97098.31;;;22.02;100.00
8697;BME280;4385;48.848;8.924;2023-07-30T06:04:05;97092.34;;;22.01;100.00
8697;BME280;4385;48.848;8.924;2023-07-30T06:06:30;97102.59;;;22.01;100.00
8697;BME280;4385;48.848;8.924;2023-07-30T06:08:56;97111.22;;;22.00;100.00
8697;BME280;4385;48.848;8.924;2023-07-30T06:11:22;97110.31;;;22.01;100.00
8697;BME280;4385;48.848;8.924;2023-07-30T06:13:47;97110.31;;;22.01;100.00
8697;BME280;4385;48.848;8.924;2023-07-30T06:16:13;97106.09;;;22.00;100.00
8697;BME280;4385;48.848;8.924;2023-07-30T06:18:38;97106.94;;;22.01;100.00
8697;BME280;4385;48.848;8.924;2023-07-30T06:21:03;97101.81;;;22.01;100.00
8697;BME280;4385;48.848;8.924;2023-07-30T06:23:29;97107.81;;;22.00;100.00
8697;BME280;4385;48.848;8.924;2023-07-30T06:25:54;97107.00;;;21.99;100.00
8697;BME280;4385;48.848;8.924;2023-07-30T06:28:19;97113.84;;;21.99;100.00
8697;BME280;4385;48.848;8.924;2023-07-30T06:30:44;97117.25;;;21.99;100.00
8697;BME280;4385;48.848;8.924;2023-07-30T06:33:10;97116.47;;;21.97;100.00
8697;BME280;4385;48.848;8.924;2023-07-30T06:35:35;97119.81;;;21.99;100.00
8697;BME280;4385;48.848;8.924;2023-07-30T06:38:00;97119.81;;;21.99;100.00
8697;BME280;4385;48.848;8.924;2023-07-30T06:40:26;97130.09;;;21.99;100.00
8697;BME280;4385;48.848;8.924;2023-07-30T06:42:51;97126.59;;;22.00;100.00
8697;BME280;4385;48.848;8.924;2023-07-30T06:45:17;97130.09;;;21.99;100.00
8697;BME280;4385;48.848;8.924;2023-07-30T06:47:42;97134.31;;;22.00;100.00
8697;BME280;4385;48.848;8.924;2023-07-30T06:50:07;97144.56;;;22.00;100.00
8697;BME280;4385;48.848;8.924;2023-07-30T06:52:34;97148.78;;;22.01;100.00
8697;BME280;4385;48.848;8.924;2023-07-30T06:54:59;97145.34;;;22.02;100.00
8697;BME280;4385;48.848;8.924;2023-07-30T06:57:24;97157.34;;;22.02;100.00
8697;BME280;4385;48.848;8.924;2023-07-30T06:59:50;97166.69;;;22.03;100.00
8697;BME280;4385;48.848;8.924;2023-07-30T07:02:15;97167.53;;;22.03;100.00
8697;BME280;4385;48.848;8.924;2023-07-30T07:04:40;97162.41;;;22.03;100.00
8697;BME280;4385;48.848;8.924;2023-07-30T07:07:06;97172.66;;;22.03;100.00
8697;BME280;4385;48.848;8.924;2023-07-30T07:09:31;97168.38;;;22.04;100.00
8697;BME280;4385;48.848;8.924;2023-07-30T07:11:56;97189.72;;;22.04;100.00
8697;BME280;4385;48.848;8.924;2023-07-30T07:14:22;97191.41;;;22.05;100.00
8697;BME280;4385;48.848;8.924;2023-07-30T07:16:47;97195.69;;;22.05;100.00
8697;BME280;4385;48.848;8.924;2023-07-30T07:19:13;97196.53;;;22.05;100.00
8697;BME280;4385;48.848;8.924;2023-07-30T07:21:39;97199.91;;;22.06;100.00
8697;BME280;4385;48.848;8.924;2023-07-30T07:24:04;97191.41;;;22.05;100.00
8697;BME280;4385;48.848;8.924;2023-07-30T07:26:29;97194.78;;;22.06;100.00
8697;BME280;4385;48.848;8.924;2023-07-30T07:28:55;97188.84;;;22.05;100.00
8697;BME280;4385;48.848;8.924;2023-07-30T07:31:21;97187.91;;;22.07;100.00
8697;BME280;4385;48.848;8.924;2023-07-30T07:33:46;97201.59;;;22.07;100.00
8697;BME280;4385;48.848;8.924;2023-07-30T07:36:11;97194.78;;;22.06;100.00
8697;BME280;4385;48.848;8.924;2023-07-30T07:38:39;97204.16;;;22.07;100.00
8697;BME280;4385;48.848;8.924;2023-07-30T07:41:04;97208.44;;;22.07;100.00
8697;BME280;4385;48.848;8.924;2023-07-30T07:43:29;97199.03;;;22.07;100.00
8697;BME280;4385;48.848;8.924;2023-07-30T07:45:55;97197.28;;;22.08;100.00
8697;BME280;4385;48.848;8.924;2023-07-30T07:48:20;97197.34;;;22.06;100.00
8697;BME280;4385;48.848;8.924;2023-07-30T07:50:45;97190.50;;;22.07;100.00
8697;BME280;4385;48.848;8.924;2023-07-30T07:53:10;97199.84;;;22.08;100.00
8697;BME280;4385;48.848;8.924;2023-07-30T07:55:36;97191.34;;;22.07;100.00
8697;BME280;4385;48.848;8.924;2023-07-30T07:58:01;97190.50;;;22.07;100.00
8697;BME280;4385;48.848;8.924;2023-07-30T08:00:26;97193.06;;;22.07;100.00
8697;BME280;4385;48.848;8.924;2023-07-30T08:02:52;97194.72;;;22.08;100.00
8697;BME280;4385;48.848;8.924;2023-07-30T08:05:17;97196.47;;;22.07;100.00
8697;BME280;4385;48.848;8.924;2023-07-30T08:07:45;97184.44;;;22.08;100.00
8697;BME280;4385;48.848;8.924;2023-07-30T08:10:11;97187.06;;;22.06;100.00
8697;BME280;4385;48.848;8.924;2023-07-30T08:12:36;97194.78;;;22.06;100.00
8697;BME280;4385;48.848;8.924;2023-07-30T08:15:01;97193.91;;;22.07;100.00
8697;BME280;4385;48.848;8.924;2023-07-30T08:17:27;97186.25;;;22.05;100.00
8697;BME280;4385;48.848;8.924;2023-07-30T08:19:52;97191.41;;;22.05;100.00
8697;BME280;4385;48.848;8.924;2023-07-30T08:22:17;97193.06;;;22.07;100.00
8697;BME280;4385;48.848;8.924;2023-07-30T08:24:43;97185.41;;;22.05;100.00
8697;BME280;4385;48.848;8.924;2023-07-30T08:27:08;97192.22;;;22.06;100.00
8697;BME280;4385;48.848;8.924;2023-07-30T08:29:33;97191.41;;;22.05;100.00
8697;BME280;4385;48.848;8.924;2023-07-30T08:31:59;97191.41;;;22.05;100.00
8697;BME280;4385;48.848;8.924;2023-07-30T08:34:24;97189.66;;;22.06;100.00
8697;BME280;4385;48.848;8.924;2023-07-30T08:36:49;97180.22;;;22.07;100.00
8697;BME280;4385;48.848;8.924;2023-07-30T08:39:15;97184.50;;;22.06;100.00
8697;BME280;4385;48.848;8.924;2023-07-30T08:41:40;97196.47;;;22.07;100.00
8697;BME280;4385;48.848;8.924;2023-07-30T08:44:06;97200.75;;;22.07;100.00
8697;BME280;4385;48.848;8.924;2023-07-30T08:46:31;97199.91;;;22.06;100.00
8697;BME280;4385;48.848;8.924;2023-07-30T08:48:57;97214.44;;;22.07;100.00
8697;BME280;4385;48.848;8.924;2023-07-30T08:51:22;97207.53;;;22.08;100.00
8697;BME280;4385;48.848;8.924;2023-07-30T08:53:51;97210.09;;;22.08;100.00
8697;BME280;4385;48.848;8.924;2023-07-30T08:56:16;97209.28;;;22.07;100.00
8697;BME280;4385;48.848;8.924;2023-07-30T08:58:43;97210.94;;;22.08;100.00
8697;BME280;4385;48.848;8.924;2023-07-30T09:01:11;97217.75;;;22.09;100.00
8697;BME280;4385;48.848;8.924;2023-07-30T09:03:40;97216.09;;;22.08;100.00
8697;BME280;4385;48.848;8.924;2023-07-30T09:06:08;97217.75;;;22.09;100.00
8697;BME280;4385;48.848;8.924;2023-07-30T09:08:33;97219.50;;;22.09;100.00
8697;BME280;4385;48.848;8.924;2023-07-30T09:11:25;97215.19;;;22.09;100.00
8697;BME280;4385;48.848;8.924;2023-07-30T09:13:53;97218.59;;;22.10;100.00
8697;BME280;4385;48.848;8.924;2023-07-30T09:16:18;97213.44;;;22.10;100.00
8697;BME280;4385;48.848;8.924;2023-07-30T09:18:45;97221.16;;;22.10;100.00
8697;BME280;4385;48.848;8.924;2023-07-30T09:21:12;97216.88;;;22.10;100.00
8697;BME280;4385;48.848;8.924;2023-07-30T09:23:43;97223.72;;;22.10;100.00
8697;BME280;4385;48.848;8.924;2023-07-30T09:26:09;97224.56;;;22.10;100.00
8697;BME280;4385;48.848;8.924;2023-07-30T09:28:35;97221.09;;;22.11;100.00
8697;BME280;4385;48.848;8.924;2023-07-30T09:31:02;97231.34;;;22.11;100.00
8697;BME280;4385;48.848;8.924;2023-07-30T09:33:27;97233.00;;;22.12;100.00
8697;BME280;4385;48.848;8.924;2023-07-30T09:35:53;97242.41;;;22.13;100.00
8697;BME280;4385;48.848;8.924;2023-07-30T09:38:19;97244.13;;;22.13;100.00
8697;BME280;4385;48.848;8.924;2023-07-30T09:40:46;97250.09;;;22.13;100.00
8697;BME280;4385;48.848;8.924;2023-07-30T09:43:15;97245.78;;;22.14;100.00
8697;BME280;4385;48.848;8.924;2023-07-30T09:45:45;97248.34;;;22.14;100.00
8697;BME280;4385;48.848;8.924;2023-07-30T09:48:12;97250.91;;;22.14;100.00
8697;BME280;4385;48.848;8.924;2023-07-30T09:50:37;97256.88;;;22.14;100.00
8697;BME280;4385;48.848;8.924;2023-07-30T09:53:03;97252.59;;;22.15;100.00
8697;BME280;4385;48.848;8.924;2023-07-30T09:55:29;97250.03;;;22.15;100.00
8697;BME280;4385;48.848;8.924;2023-07-30T09:57:54;97259.38;;;22.16;100.00
8697;BME280;4385;48.848;8.924;2023-07-30T10:00:20;97265.38;;;22.16;100.00
8697;BME280;4385;48.848;8.924;2023-07-30T10:02:46;97271.31;;;22.17;100.00
8697;BME280;4385;48.848;8.924;2023-07-30T10:05:16;97267.09;;;22.16;100.00
8697;BME280;4385;48.848;8.924;2023-07-30T10:07:49;97264.53;;;22.16;100.00
8697;BME280;4385;48.848;8.924;2023-07-30T10:10:15;97252.59;;;22.15;100.00
8697;BME280;4385;48.848;8.924;2023-07-30T10:12:41;97273.00;;;22.18;100.00
8697;BME280;4385;48.848;8.924;2023-07-30T10:15:08;97267.88;;;22.18;100.00
8697;BME280;4385;48.848;8.924;2023-07-30T10:17:34;97260.97;;;22.18;100.00
8697;BME280;4385;48.848;8.924;2023-07-30T10:20:24;97264.44;;;22.17;100.00
8697;BME280;4385;48.848;8.924;2023-07-30T10:22:54;97264.44;;;22.17;100.00
8697;BME280;4385;48.848;8.924;2023-07-30T10:25:41;97258.47;;;22.17;100.00
8697;BME280;4385;48.848;8.924;2023-07-30T10:28:07;97266.13;;;22.18;100.00
8697;BME280;4385;48.848;8.924;2023-07-30T10:30:32;97264.41;;;22.19;100.00
8697;BME280;4385;48.848;8.924;2023-07-30T10:33:00;97260.91;;;22.20;100.00
8697;BME280;4385;48.848;8.924;2023-07-30T10:35:42;97258.34;;;22.20;100.00
8697;BME280;4385;48.848;8.924;2023-07-30T10:38:18;97260.84;;;22.22;100.00
8697;BME280;4385;48.848;8.924;2023-07-30T10:41:06;97274.53;;;22.22;100.00
8697;BME280;4385;48.848;8.924;2023-07-30T10:43:39;97272.75;;;22.24;100.00
8697;BME280;4385;48.848;8.924;2023-07-30T10:46:05;97283.00;;;22.24;100.00
8697;BME280;4385;48.848;8.924;2023-07-30T10:48:36;97294.09;;;22.25;100.00
8697;BME280;4385;48.848;8.924;2023-07-30T10:51:05;97293.22;;;22.26;100.00
8697;BME280;4385;48.848;8.924;2023-07-30T10:53:31;97293.16;;;22.27;100.00
8697;BME280;4385;48.848;8.924;2023-07-30T10:56:00;97298.34;;;22.26;100.00
8697;BME280;4385;48.848;8.924;2023-07-30T10:58:35;97289.75;;;22.27;100.00
8697;BME280;4385;48.848;8.924;2023-07-30T11:01:07;97303.41;;;22.27;100.00
8697;BME280;4385;48.848;8.924;2023-07-30T11:03:34;97306.00;;;22.27;100.00
8697;BME280;4385;48.848;8.924;2023-07-30T11:06:00;97303.41;;;22.27;100.00
8697;BME280;4385;48.848;8.924;2023-07-30T11:10:58;97309.25;;;22.31;100.00
8697;BME280;4385;48.848;8.924;2023-07-30T11:13:23;97312.59;;;22.33;100.00
8697;BME280;4385;48.848;8.924;2023-07-30T11:15:49;97312.59;;;22.33;100.00
8697;BME280;4385;48.848;8.924;2023-07-30T11:18:14;97302.31;;;22.33;100.00
8697;BME280;4385;48.848;8.924;2023-07-30T11:20:39;97309.97;;;22.35;100.00
8697;BME280;4385;48.848;8.924;2023-07-30T11:23:21;97311.63;;;22.36;100.00
8697;BME280;4385;48.848;8.924;2023-07-30T11:25:50;97299.69;;;22.35;100.00
8697;BME280;4385;48.848;8.924;2023-07-30T11:28:38;97307.41;;;22.35;100.00
8697;BME280;4385;48.848;8.924;2023-07-30T11:31:10;97304.81;;;22.35;100.00
8697;BME280;4385;48.848;8.924;2023-07-30T11:33:46;97300.53;;;22.35;100.00
8697;BME280;4385;48.848;8.924;2023-07-30T11:36:15;97309.91;;;22.36;100.00
8697;BME280;4385;48.848;8.924;2023-07-30T11:38:41;97304.81;;;22.35;100.00
8697;BME280;4385;48.848;8.924;2023-07-30T11:41:08;97313.31;;;22.37;100.00
8697;BME280;4385;48.848;8.924;2023-07-30T11:43:39;97321.88;;;22.36;100.00
8697;BME280;4385;48.848;8.924;2023-07-30T11:46:17;97306.47;;;22.36;100.00
8697;BME280;4385;48.848;8.924;2023-07-30T11:48:49;97318.44;;;22.37;100.00
8697;BME280;4385;48.848;8.924;2023-07-30T11:51:22;97319.19;;;22.39;100.00
8697;BME280;4385;48.848;8.924;2023-07-30T11:53:52;97311.50;;;22.39;100.00
8697;BME280;4385;48.848;8.924;2023-07-30T11:56:23;97295.22;;;22.40;100.00
8697;BME280;4385;48.848;8.924;2023-07-30T11:58:50;97305.47;;;22.40;100.00
8697;BME280;4385;48.848;8.924;2023-07-30T12:01:15;97304.69;;;22.38;100.00
8697;BME280;4385;48.848;8.924;2023-07-30T12:03:41;97312.41;;;22.38;100.00
8697;BME280;4385;48.848;8.924;2023-07-30T12:06:07;97319.31;;;22.36;100.00
8697;BME280;4385;48.848;8.924;2023-07-30T12:08:34;97323.56;;;22.37;100.00
8697;BME280;4385;48.848;8.924;2023-07-30T12:11:05;97326.16;;;22.37;100.00
8697;BME280;4385;48.848;8.924;2023-07-30T12:13:31;97318.44;;;22.37;100.00
8697;BME280;4385;48.848;8.924;2023-07-30T12:15:57;97324.44;;;22.36;100.00
8697;BME280;4385;48.848;8.924;2023-07-30T12:18:24;97331.28;;;22.37;100.00
8697;BME280;4385;48.848;8.924;2023-07-30T12:20:51;97333.84;;;22.37;100.00
8697;BME280;4385;48.848;8.924;2023-07-30T12:23:17;97326.97;;;22.37;100.00
8697;BME280;4385;48.848;8.924;2023-07-30T12:25:42;97319.25;;;22.37;100.00
8697;BME280;4385;48.848;8.924;2023-07-30T12:28:07;97328.59;;;22.40;100.00
8697;BME280;4385;48.848;8.924;2023-07-30T12:30:33;97328.59;;;22.40;100.00
8697;BME280;4385;48.848;8.924;2023-07-30T12:32:58;97329.34;;;22.42;100.00
8697;BME280;4385;48.848;8.924;2023-07-30T12:35:24;97323.31;;;22.43;100.00
8697;BME280;4385;48.848;8.924;2023-07-30T12:37:49;97338.72;;;22.43;100.00
8697;BME280;4385;48.848;8.924;2023-07-30T12:40:16;97335.31;;;22.42;100.00
8697;BME280;4385;48.848;8.924;2023-07-30T12:42:41;97331.84;;;22.43;100.00
8697;BME280;4385;48.848;8.924;2023-07-30T12:45:07;97330.13;;;22.44;100.00
8697;BME280;4385;48.848;8.924;2023-07-30T12:47:32;97336.09;;;22.45;100.00
8697;BME280;4385;48.848;8.924;2023-07-30T12:50:00;97335.19;;;22.46;100.00
8697;BME280;4385;48.848;8.924;2023-07-30T12:52:26;97333.47;;;22.46;100.00
8697;BME280;4385;48.848;8.924;2023-07-30T12:54:51;97327.50;;;22.46;100.00
8697;BME280;4385;48.848;8.924;2023-07-30T12:57:16;97336.03;;;22.46;100.00
8697;BME280;4385;48.848;8.924;2023-07-30T12:59:41;97330.06;;;22.46;100.00
8697;BME280;4385;48.848;8.924;2023-07-30T13:02:07;97335.13;;;22.47;100.00
8697;BME280;4385;48.848;8.924;2023-07-30T13:04:32;97341.91;;;22.48;100.00
8697;BME280;4385;48.848;8.924;2023-07-30T13:06:57;97335.13;;;22.47;100.00
8697;BME280;4385;48.848;8.924;2023-07-30T13:09:22;97341.09;;;22.48;100.00